BEL25Y GCTS-GCLP
Flight info
| Callsign | BEL25Y |
|---|---|
| Flight time | 0h 22m |
| Altitude | 9000 |
| Route | PELIN |
| Aircraft | A20N/M-SDE2E3FGHIRWXY/LB1 |
Departure
| Time | 2026-05-04 13:14 |
|---|---|
| Airport | Tenerife Sur Airport (GCTS) |
Arrival
| Time | 2026-05-04 13:37 |
|---|---|
| Airport | Gran Canaria Airport (GCLP) |
| Time | Latitude | Longitude | Altitude | Speed | Heading |
|---|---|---|---|---|---|
| 2026-05-04 12:57 | 28.04551 | -16.58205 | 202 ft | 0 kts | 340° |
| 2026-05-04 13:06 | 28.04525 | -16.58194 | 212 ft | 4 kts | 338° |
| 2026-05-04 13:06 | 28.04498 | -16.58181 | 209 ft | 4 kts | 332° |
| 2026-05-04 13:06 | 28.04482 | -16.58168 | 209 ft | 2 kts | 309° |
| 2026-05-04 13:07 | 28.04473 | -16.58151 | 212 ft | 2 kts | 272° |
| 2026-05-04 13:07 | 28.04474 | -16.58141 | 209 ft | 0 kts | 248° |
| 2026-05-04 13:09 | 28.04471 | -16.58149 | 202 ft | 5 kts | 248° |
| 2026-05-04 13:09 | 28.04438 | -16.58244 | 203 ft | 19 kts | 249° |
| 2026-05-04 13:10 | 28.04378 | -16.58419 | 203 ft | 28 kts | 249° |
| 2026-05-04 13:10 | 28.04329 | -16.58551 | 205 ft | 10 kts | 235° |
| 2026-05-04 13:10 | 28.04257 | -16.58560 | 207 ft | 0 kts | 162° |
| 2026-05-04 13:11 | 28.04254 | -16.58559 | 206 ft | 3 kts | 162° |
| 2026-05-04 13:11 | 28.04217 | -16.58546 | 202 ft | 7 kts | 162° |
| 2026-05-04 13:11 | 28.04175 | -16.58586 | 203 ft | 12 kts | 249° |
| 2026-05-04 13:11 | 28.04133 | -16.58702 | 206 ft | 20 kts | 249° |
| 2026-05-04 13:12 | 28.04073 | -16.58879 | 204 ft | 28 kts | 249° |
| 2026-05-04 13:12 | 28.04042 | -16.58972 | 206 ft | 12 kts | 249° |
| 2026-05-04 13:12 | 28.04006 | -16.59011 | 207 ft | 8 kts | 168° |
| 2026-05-04 13:12 | 28.03951 | -16.58965 | 200 ft | 11 kts | 130° |
| 2026-05-04 13:13 | 28.03913 | -16.58897 | 203 ft | 11 kts | 118° |
| 2026-05-04 13:13 | 28.03905 | -16.58798 | 207 ft | 14 kts | 73° |
| 2026-05-04 13:13 | 28.03922 | -16.58749 | 206 ft | 0 kts | 68° |
| 2026-05-04 13:14 | 28.03943 | -16.58689 | 203 ft | 34 kts | 68° |
| 2026-05-04 13:14 | 28.04149 | -16.58101 | 206 ft | 121 kts | 68° |
| 2026-05-04 13:14 | 28.04535 | -16.57035 | 473 ft | 158 kts | 69° |
| 2026-05-04 13:14 | 28.04956 | -16.55876 | 1277 ft | 162 kts | 69° |
| 2026-05-04 13:15 | 28.05380 | -16.54659 | 2127 ft | 172 kts | 68° |
| 2026-05-04 13:15 | 28.05852 | -16.53319 | 2811 ft | 197 kts | 67° |
| 2026-05-04 13:15 | 28.06387 | -16.51811 | 3748 ft | 223 kts | 67° |
| 2026-05-04 13:15 | 28.06995 | -16.50071 | 4688 ft | 252 kts | 68° |
| 2026-05-04 13:16 | 28.07660 | -16.48119 | 5627 ft | 276 kts | 68° |
| 2026-05-04 13:16 | 28.08341 | -16.46039 | 6880 ft | 288 kts | 72° |
| 2026-05-04 13:16 | 28.08747 | -16.43767 | 7816 ft | 300 kts | 89° |
| 2026-05-04 13:16 | 28.08402 | -16.41442 | 8387 ft | 301 kts | 114° |
| 2026-05-04 13:17 | 28.07357 | -16.39395 | 8756 ft | 300 kts | 128° |
| 2026-05-04 13:17 | 28.06080 | -16.37522 | 8952 ft | 301 kts | 131° |
| 2026-05-04 13:17 | 28.04773 | -16.35665 | 9066 ft | 302 kts | 131° |
| 2026-05-04 13:17 | 28.03497 | -16.33773 | 9082 ft | 302 kts | 129° |
| 2026-05-04 13:18 | 28.02258 | -16.31851 | 9083 ft | 302 kts | 128° |
| 2026-05-04 13:18 | 28.01041 | -16.29907 | 9087 ft | 302 kts | 128° |
| 2026-05-04 13:18 | 27.99836 | -16.27956 | 9086 ft | 302 kts | 128° |
| 2026-05-04 13:18 | 27.98635 | -16.26001 | 9075 ft | 302 kts | 128° |
| 2026-05-04 13:19 | 27.97434 | -16.24047 | 9082 ft | 302 kts | 128° |
| 2026-05-04 13:19 | 27.96234 | -16.22097 | 9077 ft | 302 kts | 128° |
| 2026-05-04 13:19 | 27.95032 | -16.20146 | 9081 ft | 302 kts | 128° |
| 2026-05-04 13:19 | 27.93844 | -16.18219 | 9064 ft | 302 kts | 128° |
| 2026-05-04 13:20 | 27.92647 | -16.16279 | 8810 ft | 299 kts | 128° |
| 2026-05-04 13:20 | 27.91457 | -16.14353 | 8405 ft | 298 kts | 127° |
| 2026-05-04 13:20 | 27.90274 | -16.12439 | 7979 ft | 295 kts | 127° |
| 2026-05-04 13:20 | 27.89100 | -16.10542 | 7536 ft | 293 kts | 127° |
| 2026-05-04 13:21 | 27.87938 | -16.08665 | 7123 ft | 290 kts | 127° |
| 2026-05-04 13:21 | 27.86787 | -16.06803 | 6698 ft | 288 kts | 126° |
| 2026-05-04 13:21 | 27.85644 | -16.04957 | 6318 ft | 284 kts | 126° |
| 2026-05-04 13:21 | 27.84509 | -16.03124 | 6126 ft | 286 kts | 126° |
| 2026-05-04 13:22 | 27.83384 | -16.01309 | 5995 ft | 284 kts | 126° |
| 2026-05-04 13:22 | 27.82255 | -15.99486 | 5870 ft | 283 kts | 126° |
| 2026-05-04 13:22 | 27.81125 | -15.97663 | 5753 ft | 282 kts | 126° |
| 2026-05-04 13:22 | 27.80002 | -15.95852 | 5617 ft | 281 kts | 126° |
| 2026-05-04 13:23 | 27.78879 | -15.94044 | 5503 ft | 281 kts | 126° |
| 2026-05-04 13:23 | 27.77756 | -15.92237 | 5384 ft | 280 kts | 125° |
| 2026-05-04 13:23 | 27.76644 | -15.90446 | 5261 ft | 276 kts | 125° |
| 2026-05-04 13:23 | 27.75563 | -15.88708 | 5139 ft | 264 kts | 125° |
| 2026-05-04 13:24 | 27.74545 | -15.87070 | 5034 ft | 251 kts | 125° |
| 2026-05-04 13:24 | 27.73570 | -15.85501 | 5001 ft | 240 kts | 125° |
| 2026-05-04 13:24 | 27.72592 | -15.83927 | 5008 ft | 244 kts | 125° |
| 2026-05-04 13:25 | 27.70648 | -15.80800 | 5006 ft | 243 kts | 125° |
| 2026-05-04 13:25 | 27.69677 | -15.79242 | 5000 ft | 243 kts | 125° |
| 2026-05-04 13:25 | 27.68706 | -15.77683 | 5004 ft | 243 kts | 125° |
| 2026-05-04 13:25 | 27.67732 | -15.76120 | 5005 ft | 243 kts | 125° |
| 2026-05-04 13:26 | 27.66759 | -15.74558 | 5009 ft | 243 kts | 125° |
| 2026-05-04 13:26 | 27.65787 | -15.73000 | 5002 ft | 243 kts | 125° |
| 2026-05-04 13:26 | 27.64814 | -15.71439 | 4999 ft | 243 kts | 125° |
| 2026-05-04 13:26 | 27.63839 | -15.69877 | 4997 ft | 243 kts | 125° |
| 2026-05-04 13:27 | 27.62865 | -15.68316 | 5006 ft | 244 kts | 125° |
| 2026-05-04 13:27 | 27.61890 | -15.66754 | 5003 ft | 243 kts | 125° |
| 2026-05-04 13:27 | 27.60914 | -15.65189 | 4997 ft | 243 kts | 125° |
| 2026-05-04 13:27 | 27.59960 | -15.63662 | 4912 ft | 239 kts | 125° |
| 2026-05-04 13:28 | 27.59019 | -15.62157 | 4805 ft | 231 kts | 125° |
| 2026-05-04 13:28 | 27.58098 | -15.60685 | 4678 ft | 231 kts | 125° |
| 2026-05-04 13:28 | 27.57174 | -15.59209 | 4551 ft | 228 kts | 124° |
| 2026-05-04 13:28 | 27.56372 | -15.57679 | 4424 ft | 227 kts | 107° |
| 2026-05-04 13:29 | 27.56315 | -15.55933 | 4303 ft | 224 kts | 74° |
| 2026-05-04 13:29 | 27.57101 | -15.54453 | 4186 ft | 222 kts | 41° |
| 2026-05-04 13:29 | 27.58455 | -15.53651 | 4069 ft | 222 kts | 20° |
| 2026-05-04 13:29 | 27.59901 | -15.53073 | 3945 ft | 220 kts | 20° |
| 2026-05-04 13:30 | 27.61340 | -15.52491 | 3816 ft | 218 kts | 20° |
| 2026-05-04 13:30 | 27.62769 | -15.51897 | 3704 ft | 218 kts | 21° |
| 2026-05-04 13:30 | 27.64165 | -15.51304 | 3580 ft | 216 kts | 21° |
| 2026-05-04 13:30 | 27.65574 | -15.50698 | 3460 ft | 215 kts | 21° |
| 2026-05-04 13:31 | 27.66972 | -15.50095 | 3339 ft | 213 kts | 21° |
| 2026-05-04 13:31 | 27.68343 | -15.49508 | 3213 ft | 208 kts | 22° |
| 2026-05-04 13:31 | 27.69678 | -15.48936 | 3083 ft | 202 kts | 22° |
| 2026-05-04 13:31 | 27.70983 | -15.48378 | 2962 ft | 205 kts | 22° |
| 2026-05-04 13:32 | 27.72303 | -15.47814 | 2838 ft | 200 kts | 22° |
| 2026-05-04 13:32 | 27.73611 | -15.47254 | 2720 ft | 200 kts | 22° |
| 2026-05-04 13:32 | 27.74912 | -15.46696 | 2586 ft | 198 kts | 22° |
| 2026-05-04 13:32 | 27.76210 | -15.46138 | 2515 ft | 203 kts | 22° |
| 2026-05-04 13:33 | 27.77524 | -15.45606 | 2505 ft | 197 kts | 21° |
| 2026-05-04 13:33 | 27.78779 | -15.45088 | 2499 ft | 187 kts | 22° |
| 2026-05-04 13:33 | 27.79958 | -15.44575 | 2501 ft | 177 kts | 23° |
| 2026-05-04 13:33 | 27.81114 | -15.44058 | 2425 ft | 184 kts | 22° |
| 2026-05-04 13:34 | 27.82327 | -15.43521 | 2152 ft | 180 kts | 23° |
| 2026-05-04 13:34 | 27.83425 | -15.43029 | 1918 ft | 161 kts | 22° |
| 2026-05-04 13:34 | 27.84404 | -15.42594 | 1711 ft | 141 kts | 23° |
| 2026-05-04 13:34 | 27.85265 | -15.42209 | 1507 ft | 126 kts | 22° |
| 2026-05-04 13:35 | 27.86086 | -15.41841 | 1350 ft | 129 kts | 22° |
| 2026-05-04 13:35 | 27.87696 | -15.41098 | 1012 ft | 125 kts | 25° |
| 2026-05-04 13:35 | 27.88478 | -15.40730 | 837 ft | 120 kts | 25° |
| 2026-05-04 13:36 | 27.89258 | -15.40372 | 729 ft | 120 kts | 21° |
| 2026-05-04 13:36 | 27.90021 | -15.40058 | 564 ft | 116 kts | 23° |
| 2026-05-04 13:36 | 27.90778 | -15.39723 | 398 ft | 115 kts | 23° |
| 2026-05-04 13:36 | 27.91502 | -15.39405 | 256 ft | 110 kts | 22° |
| 2026-05-04 13:37 | 27.92205 | -15.39094 | 98 ft | 109 kts | 22° |
| 2026-05-04 13:37 | 27.92838 | -15.38813 | 68 ft | 75 kts | 21° |
| 2026-05-04 13:37 | 27.93181 | -15.38663 | 57 ft | 44 kts | 21° |
| 2026-05-04 13:37 | 27.93364 | -15.38581 | 54 ft | 41 kts | 21° |
| 2026-05-04 13:38 | 27.93698 | -15.38434 | 51 ft | 27 kts | 16° |
| 2026-05-04 13:38 | 27.93898 | -15.38428 | 52 ft | 31 kts | 354° |
| 2026-05-04 13:38 | 27.93984 | -15.38445 | 50 ft | 4 kts | 349° |
| 2026-05-04 13:38 | 27.94001 | -15.38448 | 50 ft | 0 kts | 349° |
| 2026-05-04 13:39 | 27.94014 | -15.38453 | 49 ft | 7 kts | 340° |
| 2026-05-04 13:39 | 27.94064 | -15.38531 | 48 ft | 17 kts | 290° |
| 2026-05-04 13:40 | 27.94065 | -15.38625 | 46 ft | 14 kts | 226° |
| 2026-05-04 13:40 | 27.94006 | -15.38654 | 49 ft | 2 kts | 202° |
| 2026-05-04 13:40 | 27.93973 | -15.38669 | 50 ft | 9 kts | 202° |
| 2026-05-04 13:40 | 27.93929 | -15.38688 | 49 ft | 1 kts | 200° |
| 2026-05-04 13:41 | 27.93923 | -15.38707 | 50 ft | 4 kts | 277° |
| 2026-05-04 13:41 | 27.93939 | -15.38758 | 50 ft | 7 kts | 291° |
| 2026-05-04 13:41 | 27.93942 | -15.38768 | 47 ft | 0 kts | 291° |